Flight Track Log - Related Links

Times and Time Zones

All times are in EDT time to prevent confusion due to time zone crossing. See the JEX1789 flight status page for this flight to view local times or setup timezone preferences in your user account.

Time Position Orientation Groundspeed Altitude Reporting Facility
EDT Latitude Longitude Course Direction KTS MPH feet Rate Location/Type
Fri 01:53:00 AM 35.4710 139.4113 255° West  Level Estimated
Fri 01:54:00 AM 35.4436 139.2886 255° West  Level Estimated
Fri 01:55:00 AM 35.4161 139.1660 255° West  Level Estimated
Fri 01:56:00 AM 35.3885 139.0436 255° West  Level Estimated
Fri 01:57:00 AM 35.3608 138.9212 255° West  Level Estimated
Fri 01:58:00 AM 35.3330 138.7989 254° West  Level Estimated
Fri 01:59:00 AM 35.3050 138.6766 254° West  Level Estimated
Fri 02:00:00 AM 35.2769 138.5545 254° West  Level Estimated
Fri 02:01:00 AM 35.2487 138.4324 254° West  Level Estimated
Fri 02:02:00 AM 35.2204 138.3105 254° West  Level Estimated
Fri 02:03:00 AM 35.1919 138.1886 254° West  Level Estimated
Fri 02:04:00 AM 35.1633 138.0668 254° West  Level Estimated
Fri 02:05:00 AM 35.1346 137.9451 254° West  Level Estimated
Fri 02:06:00 AM 35.1054 137.8216 254° West  Level Estimated
Fri 02:07:00 AM 35.0760 137.6982 254° West  Level Estimated
Fri 02:08:00 AM 35.0465 137.5749 254° West  Level Estimated
Fri 02:09:00 AM 35.0169 137.4517 254° West  Level Estimated
Fri 02:10:00 AM 34.9871 137.3286 254° West  Level Estimated
Fri 02:11:00 AM 34.9572 137.2056 254° West  Level Estimated
Fri 02:12:00 AM 34.9272 137.0826 253° West  Level Estimated
Fri 02:13:00 AM 34.8971 136.9598 253° West  Level Estimated
Fri 02:14:00 AM 34.8668 136.8370 253° West  Level Estimated
Fri 02:15:00 AM 34.8364 136.7144 253° West  Level Estimated
Fri 02:16:00 AM 34.8060 136.5918 253° West  Level Estimated
Fri 02:17:00 AM 34.7748 136.4674 253° West  Level Estimated
Fri 02:18:00 AM 34.7436 136.3431 253° West  Level Estimated
Fri 02:19:00 AM 34.7123 136.2190 253° West  Level Estimated
Fri 02:20:00 AM 34.6808 136.0949 253° West  Level Estimated
Fri 02:21:00 AM 34.6492 135.9709 253° West  Level Estimated
Fri 02:22:00 AM 34.6175 135.8470 253° West  Level Estimated
Fri 02:23:00 AM 34.5856 135.7232 253° West  Level Estimated
Fri 02:24:00 AM 34.5537 135.5995 253° West  Level Estimated
Fri 02:25:00 AM 34.5216 135.4759 253° West  Level Estimated
Fri 02:26:00 AM 34.4893 135.3524 252° West  Level Estimated
Fri 02:27:00 AM 34.4570 135.2289 252° West  Level Estimated
Fri 02:28:00 AM 34.4245 135.1056 252° West  Level Estimated
Fri 02:29:00 AM 34.3919 134.9824 252° West  Level Estimated
Fri 02:30:00 AM 34.3592 134.8593 252° West  Level Estimated
Fri 02:31:00 AM 34.3264 134.7362 252° West  Level Estimated
Fri 02:32:00 AM 34.2934 134.6133 252° West  Level Estimated
Fri 02:33:00 AM 34.2603 134.4904 252° West  Level Estimated
Fri 02:34:00 AM 34.2271 134.3677 252° West  Level Estimated
Fri 02:35:00 AM 34.1938 134.2450 252° West  Level Estimated
Fri 02:36:00 AM 34.1603 134.1225 252° West  Level Estimated
Fri 02:37:00 AM 34.1267 134.0000 252° West  Level Estimated
Fri 02:38:00 AM 34.0936 133.8795 252° West  Level Estimated
Fri 02:39:00 AM 34.0602 133.7591 252° West  Level Estimated
Fri 02:40:00 AM 34.0268 133.6388 252° West  Level Estimated
Fri 02:41:00 AM 33.9933 133.5186 251° West  Level Estimated
Fri 02:42:00 AM 33.9596 133.3985 251° West  Level Estimated
Fri 02:43:00 AM 33.9259 133.2784 251° West  Level Estimated
Fri 02:44:00 AM 33.8920 133.1585 251° West  Level Estimated
Fri 02:45:00 AM 33.8580 133.0387 251° West  Level Estimated
Fri 02:46:00 AM 33.8239 132.9189 251° West  Level Estimated
Fri 02:47:00 AM 33.7896 132.7993 251° West  Level Estimated
Fri 02:48:00 AM 33.7553 132.6797 251° West  Level Estimated
Fri 02:49:00 AM 33.7208 132.5603 251° West  Level Estimated
Fri 02:50:00 AM 33.6862 132.4409 251° West  Level Estimated
Fri 02:51:00 AM 33.6515 132.3217 251° West  Level Estimated
Fri 02:52:00 AM 33.6167 132.2025 251° West  Level Estimated
Fri 02:53:00 AM 33.5818 132.0834 251° West  Level Estimated
Fri 02:54:00 AM 33.5467 131.9644 251° West  Level Estimated
Fri 02:55:00 AM 33.5116 131.8456 251° West  Level Estimated
Fri 02:56:00 AM 33.4794 131.7372 250° West  Level Estimated
Fri 02:57:00 AM 33.4794 131.7372 23° Northeast  Level Estimated
Fri 02:58:00 AM 33.4794 131.7372 23° Northeast  Level Estimated
Fri 02:59:00 AM 33.4794 131.7372 23° Northeast  Level Estimated
Fri 03:00:00 AM 33.4794 131.7372 23° Northeast  Level Estimated
Fri 03:01:00 AM 33.4794 131.7372 23° Northeast  Level Estimated
Fri 03:02:00 AM 33.4794 131.7372 23° Northeast  Level Estimated
Fri 03:03:00 AM 33.4794 131.7372 23° Northeast  Level Estimated
Fri 03:04:00 AM 33.4794 131.7372 23° Northeast  Level Estimated
Fri 03:05:00 AM 33.4794 131.7372 23° Northeast  Level Estimated
Fri 03:06:00 AM 33.4794 131.7372 23° Northeast  Level Estimated
Fri 03:07:00 AM 33.4794 131.7372 23° Northeast  Level Estimated
Fri 03:08:00 AM 33.4794 131.7372 23° Northeast  Level Estimated
Fri 03:09:00 AM 33.4794 131.7372 23° Northeast  Level Estimated

Login

Don't have an account? Register now (free) for customized features, flight alerts, and more!